sensor_id;sensor_type;location;lat;lon;timestamp;P1;durP1;ratioP1;P2;durP2;ratioP2
32108;SDS011;18624;50.042;8.436;2022-11-21T00:00:42;0.50;;;0.30;;
32108;SDS011;18624;50.042;8.436;2022-11-21T00:03:10;1.02;;;0.40;;
32108;SDS011;18624;50.042;8.436;2022-11-21T00:05:44;2.78;;;1.20;;
32108;SDS011;18624;50.042;8.436;2022-11-21T00:08:13;1.65;;;0.60;;
32108;SDS011;18624;50.042;8.436;2022-11-21T00:10:41;2.45;;;0.43;;
32108;SDS011;18624;50.042;8.436;2022-11-21T00:13:12;1.35;;;0.50;;
32108;SDS011;18624;50.042;8.436;2022-11-21T00:15:46;0.70;;;0.25;;
32108;SDS011;18624;50.042;8.436;2022-11-21T00:18:13;1.50;;;0.45;;
32108;SDS011;18624;50.042;8.436;2022-11-21T00:20:40;2.78;;;0.50;;
32108;SDS011;18624;50.042;8.436;2022-11-21T00:23:07;0.25;;;0.10;;
32108;SDS011;18624;50.042;8.436;2022-11-21T00:25:34;2.70;;;0.30;;
32108;SDS011;18624;50.042;8.436;2022-11-21T00:28:01;0.82;;;0.22;;
32108;SDS011;18624;50.042;8.436;2022-11-21T00:30:28;1.35;;;0.30;;
32108;SDS011;18624;50.042;8.436;2022-11-21T00:32:56;0.98;;;0.40;;
32108;SDS011;18624;50.042;8.436;2022-11-21T00:35:23;1.15;;;0.50;;
32108;SDS011;18624;50.042;8.436;2022-11-21T00:37:50;1.60;;;0.32;;
32108;SDS011;18624;50.042;8.436;2022-11-21T00:40:16;3.28;;;0.68;;
32108;SDS011;18624;50.042;8.436;2022-11-21T00:42:43;0.98;;;0.40;;
32108;SDS011;18624;50.042;8.436;2022-11-21T00:45:09;3.40;;;1.10;;
32108;SDS011;18624;50.042;8.436;2022-11-21T00:47:36;3.35;;;0.57;;
32108;SDS011;18624;50.042;8.436;2022-11-21T00:50:03;1.95;;;0.73;;
32108;SDS011;18624;50.042;8.436;2022-11-21T00:52:30;3.05;;;0.65;;
32108;SDS011;18624;50.042;8.436;2022-11-21T00:54:56;1.63;;;0.60;;
32108;SDS011;18624;50.042;8.436;2022-11-21T00:57:22;2.97;;;0.40;;
32108;SDS011;18624;50.042;8.436;2022-11-21T00:59:49;3.65;;;0.50;;
32108;SDS011;18624;50.042;8.436;2022-11-21T01:02:15;3.80;;;0.70;;
32108;SDS011;18624;50.042;8.436;2022-11-21T01:04:41;2.00;;;0.82;;
32108;SDS011;18624;50.042;8.436;2022-11-21T01:07:08;2.55;;;0.77;;
32108;SDS011;18624;50.042;8.436;2022-11-21T01:09:34;3.63;;;0.80;;
32108;SDS011;18624;50.042;8.436;2022-11-21T01:12:01;2.67;;;0.80;;
32108;SDS011;18624;50.042;8.436;2022-11-21T01:14:27;7.13;;;1.48;;
32108;SDS011;18624;50.042;8.436;2022-11-21T01:16:54;4.78;;;0.82;;
32108;SDS011;18624;50.042;8.436;2022-11-21T01:19:21;2.97;;;0.88;;
32108;SDS011;18624;50.042;8.436;2022-11-21T01:21:47;3.28;;;0.85;;
32108;SDS011;18624;50.042;8.436;2022-11-21T01:24:13;4.32;;;1.40;;
32108;SDS011;18624;50.042;8.436;2022-11-21T01:26:40;2.95;;;0.98;;
32108;SDS011;18624;50.042;8.436;2022-11-21T01:29:07;7.90;;;2.85;;
32108;SDS011;18624;50.042;8.436;2022-11-21T01:31:34;3.50;;;1.13;;
32108;SDS011;18624;50.042;8.436;2022-11-21T01:34:01;3.28;;;1.05;;
32108;SDS011;18624;50.042;8.436;2022-11-21T01:36:29;4.05;;;1.05;;
32108;SDS011;18624;50.042;8.436;2022-11-21T01:38:57;3.70;;;1.92;;
32108;SDS011;18624;50.042;8.436;2022-11-21T01:41:29;3.67;;;1.30;;
32108;SDS011;18624;50.042;8.436;2022-11-21T01:44:01;2.58;;;0.73;;
32108;SDS011;18624;50.042;8.436;2022-11-21T01:46:29;6.03;;;0.98;;
32108;SDS011;18624;50.042;8.436;2022-11-21T01:51:32;2.50;;;0.93;;
32108;SDS011;18624;50.042;8.436;2022-11-21T01:54:13;6.68;;;1.17;;
32108;SDS011;18624;50.042;8.436;2022-11-21T01:59:32;5.63;;;1.50;;
32108;SDS011;18624;50.042;8.436;2022-11-21T02:02:05;2.67;;;1.27;;
32108;SDS011;18624;50.042;8.436;2022-11-21T02:04:35;2.30;;;1.00;;
32108;SDS011;18624;50.042;8.436;2022-11-21T02:07:04;6.53;;;1.92;;
32108;SDS011;18624;50.042;8.436;2022-11-21T02:09:33;3.33;;;1.67;;
32108;SDS011;18624;50.042;8.436;2022-11-21T02:12:10;5.75;;;1.58;;
32108;SDS011;18624;50.042;8.436;2022-11-21T02:14:42;3.58;;;1.60;;
32108;SDS011;18624;50.042;8.436;2022-11-21T02:17:10;3.65;;;1.25;;
32108;SDS011;18624;50.042;8.436;2022-11-21T02:25:10;6.25;;;1.80;;
32108;SDS011;18624;50.042;8.436;2022-11-21T02:27:39;7.20;;;2.67;;
32108;SDS011;18624;50.042;8.436;2022-11-21T02:30:07;7.22;;;3.03;;
32108;SDS011;18624;50.042;8.436;2022-11-21T02:32:36;6.03;;;2.10;;
32108;SDS011;18624;50.042;8.436;2022-11-21T02:35:05;6.80;;;1.67;;
32108;SDS011;18624;50.042;8.436;2022-11-21T02:37:33;10.63;;;2.22;;
32108;SDS011;18624;50.042;8.436;2022-11-21T02:40:05;7.35;;;2.38;;
32108;SDS011;18624;50.042;8.436;2022-11-21T02:42:45;3.90;;;1.70;;
32108;SDS011;18624;50.042;8.436;2022-11-21T02:47:58;4.10;;;1.83;;
32108;SDS011;18624;50.042;8.436;2022-11-21T02:50:39;4.93;;;1.85;;
32108;SDS011;18624;50.042;8.436;2022-11-21T02:53:08;5.45;;;1.48;;
32108;SDS011;18624;50.042;8.436;2022-11-21T02:55:36;4.30;;;1.58;;
32108;SDS011;18624;50.042;8.436;2022-11-21T02:58:03;4.93;;;1.63;;
32108;SDS011;18624;50.042;8.436;2022-11-21T03:00:31;7.18;;;1.75;;
32108;SDS011;18624;50.042;8.436;2022-11-21T03:02:59;7.88;;;2.47;;
32108;SDS011;18624;50.042;8.436;2022-11-21T03:05:25;4.68;;;1.67;;
32108;SDS011;18624;50.042;8.436;2022-11-21T03:07:52;4.22;;;1.60;;
32108;SDS011;18624;50.042;8.436;2022-11-21T03:10:18;8.05;;;1.65;;
32108;SDS011;18624;50.042;8.436;2022-11-21T03:12:45;4.55;;;1.33;;
32108;SDS011;18624;50.042;8.436;2022-11-21T03:15:13;6.47;;;1.90;;
32108;SDS011;18624;50.042;8.436;2022-11-21T03:17:41;4.15;;;1.60;;
32108;SDS011;18624;50.042;8.436;2022-11-21T03:20:08;5.40;;;2.58;;
32108;SDS011;18624;50.042;8.436;2022-11-21T03:22:35;8.05;;;2.58;;
32108;SDS011;18624;50.042;8.436;2022-11-21T03:25:01;4.75;;;2.17;;
32108;SDS011;18624;50.042;8.436;2022-11-21T03:27:28;9.73;;;2.33;;
32108;SDS011;18624;50.042;8.436;2022-11-21T03:29:54;10.85;;;2.28;;
32108;SDS011;18624;50.042;8.436;2022-11-21T03:32:20;6.30;;;1.52;;
32108;SDS011;18624;50.042;8.436;2022-11-21T03:34:47;7.55;;;2.10;;
32108;SDS011;18624;50.042;8.436;2022-11-21T03:37:13;5.47;;;2.10;;
32108;SDS011;18624;50.042;8.436;2022-11-21T03:39:40;4.18;;;1.45;;
32108;SDS011;18624;50.042;8.436;2022-11-21T03:42:06;6.25;;;1.95;;
32108;SDS011;18624;50.042;8.436;2022-11-21T03:44:32;7.15;;;1.63;;
32108;SDS011;18624;50.042;8.436;2022-11-21T03:46:59;4.75;;;1.90;;
32108;SDS011;18624;50.042;8.436;2022-11-21T03:49:25;6.53;;;2.45;;
32108;SDS011;18624;50.042;8.436;2022-11-21T03:51:52;5.90;;;2.38;;
32108;SDS011;18624;50.042;8.436;2022-11-21T03:54:18;6.82;;;2.67;;
32108;SDS011;18624;50.042;8.436;2022-11-21T03:56:44;8.00;;;1.83;;
32108;SDS011;18624;50.042;8.436;2022-11-21T03:59:11;8.10;;;1.88;;
32108;SDS011;18624;50.042;8.436;2022-11-21T04:01:37;12.98;;;2.28;;
32108;SDS011;18624;50.042;8.436;2022-11-21T04:04:04;9.57;;;1.90;;
32108;SDS011;18624;50.042;8.436;2022-11-21T04:06:30;6.28;;;2.35;;
32108;SDS011;18624;50.042;8.436;2022-11-21T04:08:57;5.30;;;1.95;;
32108;SDS011;18624;50.042;8.436;2022-11-21T04:11:24;6.10;;;2.08;;
32108;SDS011;18624;50.042;8.436;2022-11-21T04:13:53;6.57;;;1.90;;
32108;SDS011;18624;50.042;8.436;2022-11-21T04:16:19;7.03;;;3.10;;
32108;SDS011;18624;50.042;8.436;2022-11-21T04:18:46;5.15;;;1.70;;
32108;SDS011;18624;50.042;8.436;2022-11-21T04:21:12;8.73;;;2.22;;
32108;SDS011;18624;50.042;8.436;2022-11-21T04:23:39;7.18;;;1.85;;
32108;SDS011;18624;50.042;8.436;2022-11-21T04:26:05;4.32;;;1.35;;
32108;SDS011;18624;50.042;8.436;2022-11-21T04:28:32;9.32;;;1.80;;
32108;SDS011;18624;50.042;8.436;2022-11-21T04:31:02;4.45;;;1.60;;
32108;SDS011;18624;50.042;8.436;2022-11-21T04:33:35;4.00;;;1.38;;
32108;SDS011;18624;50.042;8.436;2022-11-21T04:36:01;3.50;;;1.33;;
32108;SDS011;18624;50.042;8.436;2022-11-21T04:38:28;4.05;;;1.63;;
32108;SDS011;18624;50.042;8.436;2022-11-21T04:40:54;5.22;;;1.55;;
32108;SDS011;18624;50.042;8.436;2022-11-21T04:43:20;3.50;;;1.33;;
32108;SDS011;18624;50.042;8.436;2022-11-21T04:45:47;4.63;;;1.88;;
32108;SDS011;18624;50.042;8.436;2022-11-21T04:48:13;4.03;;;1.42;;
32108;SDS011;18624;50.042;8.436;2022-11-21T04:50:40;6.38;;;1.27;;
32108;SDS011;18624;50.042;8.436;2022-11-21T04:53:06;3.65;;;1.70;;
32108;SDS011;18624;50.042;8.436;2022-11-21T04:55:33;3.58;;;1.27;;
32108;SDS011;18624;50.042;8.436;2022-11-21T04:57:59;4.93;;;1.33;;
32108;SDS011;18624;50.042;8.436;2022-11-21T05:00:26;4.60;;;1.65;;
32108;SDS011;18624;50.042;8.436;2022-11-21T05:02:52;1.65;;;1.00;;
32108;SDS011;18624;50.042;8.436;2022-11-21T05:05:19;2.20;;;1.52;;
32108;SDS011;18624;50.042;8.436;2022-11-21T05:07:45;3.90;;;1.45;;
32108;SDS011;18624;50.042;8.436;2022-11-21T05:10:11;5.57;;;2.08;;
32108;SDS011;18624;50.042;8.436;2022-11-21T05:12:38;4.60;;;1.95;;
32108;SDS011;18624;50.042;8.436;2022-11-21T05:15:23;3.05;;;1.30;;
32108;SDS011;18624;50.042;8.436;2022-11-21T05:17:50;2.50;;;1.65;;
32108;SDS011;18624;50.042;8.436;2022-11-21T05:20:17;2.10;;;1.40;;
32108;SDS011;18624;50.042;8.436;2022-11-21T05:22:44;4.75;;;1.50;;
32108;SDS011;18624;50.042;8.436;2022-11-21T05:25:15;1.52;;;1.08;;
32108;SDS011;18624;50.042;8.436;2022-11-21T05:27:42;3.28;;;1.02;;
32108;SDS011;18624;50.042;8.436;2022-11-21T05:30:09;1.67;;;1.27;;
32108;SDS011;18624;50.042;8.436;2022-11-21T05:32:36;2.35;;;1.08;;
32108;SDS011;18624;50.042;8.436;2022-11-21T05:35:03;4.90;;;1.10;;
32108;SDS011;18624;50.042;8.436;2022-11-21T05:37:29;5.60;;;0.88;;
32108;SDS011;18624;50.042;8.436;2022-11-21T05:39:56;2.17;;;1.33;;
32108;SDS011;18624;50.042;8.436;2022-11-21T05:42:22;1.60;;;1.10;;
32108;SDS011;18624;50.042;8.436;2022-11-21T05:45:08;1.45;;;0.77;;
32108;SDS011;18624;50.042;8.436;2022-11-21T05:47:35;2.70;;;0.90;;
32108;SDS011;18624;50.042;8.436;2022-11-21T05:50:02;3.20;;;1.23;;
32108;SDS011;18624;50.042;8.436;2022-11-21T05:52:29;3.38;;;1.00;;
32108;SDS011;18624;50.042;8.436;2022-11-21T05:54:55;2.47;;;0.98;;
32108;SDS011;18624;50.042;8.436;2022-11-21T05:57:21;2.80;;;1.25;;
32108;SDS011;18624;50.042;8.436;2022-11-21T05:59:48;2.08;;;1.05;;
32108;SDS011;18624;50.042;8.436;2022-11-21T06:02:14;3.28;;;1.45;;
32108;SDS011;18624;50.042;8.436;2022-11-21T06:05:16;3.28;;;1.08;;
32108;SDS011;18624;50.042;8.436;2022-11-21T06:07:43;5.13;;;1.95;;
32108;SDS011;18624;50.042;8.436;2022-11-21T06:10:09;2.58;;;0.88;;
32108;SDS011;18624;50.042;8.436;2022-11-21T06:12:35;1.52;;;1.00;;
32108;SDS011;18624;50.042;8.436;2022-11-21T06:15:02;1.98;;;1.08;;
32108;SDS011;18624;50.042;8.436;2022-11-21T06:17:29;2.88;;;1.00;;
32108;SDS011;18624;50.042;8.436;2022-11-21T06:19:55;1.45;;;1.00;;
32108;SDS011;18624;50.042;8.436;2022-11-21T06:22:21;3.75;;;0.88;;
32108;SDS011;18624;50.042;8.436;2022-11-21T06:24:48;1.23;;;0.80;;
32108;SDS011;18624;50.042;8.436;2022-11-21T06:27:14;2.03;;;0.82;;
32108;SDS011;18624;50.042;8.436;2022-11-21T06:29:41;3.97;;;1.42;;
32108;SDS011;18624;50.042;8.436;2022-11-21T06:32:07;1.15;;;0.82;;
32108;SDS011;18624;50.042;8.436;2022-11-21T06:34:33;3.03;;;1.20;;
32108;SDS011;18624;50.042;8.436;2022-11-21T06:37:00;2.45;;;1.20;;
32108;SDS011;18624;50.042;8.436;2022-11-21T06:39:26;2.05;;;1.27;;
32108;SDS011;18624;50.042;8.436;2022-11-21T06:41:53;4.30;;;1.20;;
32108;SDS011;18624;50.042;8.436;2022-11-21T06:44:19;3.80;;;1.73;;
32108;SDS011;18624;50.042;8.436;2022-11-21T06:46:45;5.45;;;1.80;;
32108;SDS011;18624;50.042;8.436;2022-11-21T06:49:16;3.97;;;2.15;;
32108;SDS011;18624;50.042;8.436;2022-11-21T06:51:43;2.70;;;1.90;;
32108;SDS011;18624;50.042;8.436;2022-11-21T06:54:09;4.63;;;2.08;;
32108;SDS011;18624;50.042;8.436;2022-11-21T06:56:41;3.30;;;1.70;;
32108;SDS011;18624;50.042;8.436;2022-11-21T06:59:08;4.15;;;2.88;;
32108;SDS011;18624;50.042;8.436;2022-11-21T07:01:34;3.72;;;1.60;;
32108;SDS011;18624;50.042;8.436;2022-11-21T07:04:01;4.40;;;1.98;;
32108;SDS011;18624;50.042;8.436;2022-11-21T07:06:27;2.90;;;1.77;;
32108;SDS011;18624;50.042;8.436;2022-11-21T07:08:53;2.50;;;1.77;;
32108;SDS011;18624;50.042;8.436;2022-11-21T07:11:40;3.97;;;1.20;;
32108;SDS011;18624;50.042;8.436;2022-11-21T07:14:06;2.35;;;1.05;;
32108;SDS011;18624;50.042;8.436;2022-11-21T07:16:35;2.22;;;0.85;;
32108;SDS011;18624;50.042;8.436;2022-11-21T07:19:02;2.53;;;1.23;;
32108;SDS011;18624;50.042;8.436;2022-11-21T07:21:28;3.17;;;1.35;;
32108;SDS011;18624;50.042;8.436;2022-11-21T07:23:55;3.45;;;1.25;;
32108;SDS011;18624;50.042;8.436;2022-11-21T07:26:21;2.53;;;1.30;;
32108;SDS011;18624;50.042;8.436;2022-11-21T07:28:48;2.80;;;1.58;;
32108;SDS011;18624;50.042;8.436;2022-11-21T07:31:14;2.40;;;1.50;;
32108;SDS011;18624;50.042;8.436;2022-11-21T07:33:41;2.00;;;1.30;;
32108;SDS011;18624;50.042;8.436;2022-11-21T07:36:11;3.05;;;1.00;;
32108;SDS011;18624;50.042;8.436;2022-11-21T07:38:38;2.83;;;1.58;;
32108;SDS011;18624;50.042;8.436;2022-11-21T07:41:06;2.38;;;1.10;;
32108;SDS011;18624;50.042;8.436;2022-11-21T07:43:33;2.15;;;1.23;;
32108;SDS011;18624;50.042;8.436;2022-11-21T07:45:59;3.83;;;1.50;;
32108;SDS011;18624;50.042;8.436;2022-11-21T07:48:25;2.53;;;1.17;;
32108;SDS011;18624;50.042;8.436;2022-11-21T07:50:52;4.45;;;3.35;;
32108;SDS011;18624;50.042;8.436;2022-11-21T07:53:18;5.30;;;3.50;;
32108;SDS011;18624;50.042;8.436;2022-11-21T07:55:45;1.98;;;1.40;;
32108;SDS011;18624;50.042;8.436;2022-11-21T07:58:12;4.18;;;1.30;;
32108;SDS011;18624;50.042;8.436;2022-11-21T08:00:41;4.30;;;1.25;;
32108;SDS011;18624;50.042;8.436;2022-11-21T08:03:08;2.85;;;1.17;;
32108;SDS011;18624;50.042;8.436;2022-11-21T08:05:37;2.67;;;1.65;;
32108;SDS011;18624;50.042;8.436;2022-11-21T08:08:05;2.53;;;1.50;;
32108;SDS011;18624;50.042;8.436;2022-11-21T08:10:32;3.00;;;1.98;;
32108;SDS011;18624;50.042;8.436;2022-11-21T08:13:02;4.65;;;2.08;;
32108;SDS011;18624;50.042;8.436;2022-11-21T08:15:29;6.82;;;1.92;;
32108;SDS011;18624;50.042;8.436;2022-11-21T08:17:55;2.55;;;1.63;;
32108;SDS011;18624;50.042;8.436;2022-11-21T08:20:22;2.80;;;1.40;;
32108;SDS011;18624;50.042;8.436;2022-11-21T08:22:48;3.58;;;1.30;;
32108;SDS011;18624;50.042;8.436;2022-11-21T08:25:15;11.88;;;3.42;;
32108;SDS011;18624;50.042;8.436;2022-11-21T08:27:41;2.85;;;1.35;;
32108;SDS011;18624;50.042;8.436;2022-11-21T08:30:09;4.00;;;1.33;;
32108;SDS011;18624;50.042;8.436;2022-11-21T08:32:37;4.10;;;1.27;;
32108;SDS011;18624;50.042;8.436;2022-11-21T08:35:03;2.92;;;1.55;;
32108;SDS011;18624;50.042;8.436;2022-11-21T08:37:30;3.65;;;1.40;;
32108;SDS011;18624;50.042;8.436;2022-11-21T08:39:57;1.30;;;0.93;;
32108;SDS011;18624;50.042;8.436;2022-11-21T08:42:24;3.47;;;1.60;;
32108;SDS011;18624;50.042;8.436;2022-11-21T08:44:51;3.30;;;1.92;;
32108;SDS011;18624;50.042;8.436;2022-11-21T08:47:17;1.67;;;1.08;;
32108;SDS011;18624;50.042;8.436;2022-11-21T08:49:45;3.95;;;1.30;;
32108;SDS011;18624;50.042;8.436;2022-11-21T08:52:12;4.15;;;1.63;;
32108;SDS011;18624;50.042;8.436;2022-11-21T08:54:39;3.70;;;1.83;;
32108;SDS011;18624;50.042;8.436;2022-11-21T08:57:06;5.47;;;1.90;;
32108;SDS011;18624;50.042;8.436;2022-11-21T08:59:32;3.55;;;2.03;;
32108;SDS011;18624;50.042;8.436;2022-11-21T09:01:59;3.08;;;1.77;;
32108;SDS011;18624;50.042;8.436;2022-11-21T09:04:25;2.70;;;1.65;;
32108;SDS011;18624;50.042;8.436;2022-11-21T09:06:52;4.03;;;1.70;;
32108;SDS011;18624;50.042;8.436;2022-11-21T09:09:19;3.95;;;1.55;;
32108;SDS011;18624;50.042;8.436;2022-11-21T09:11:50;3.30;;;1.88;;
32108;SDS011;18624;50.042;8.436;2022-11-21T09:14:17;4.80;;;2.03;;
32108;SDS011;18624;50.042;8.436;2022-11-21T09:17:02;4.80;;;1.60;;
32108;SDS011;18624;50.042;8.436;2022-11-21T09:19:47;3.90;;;2.30;;
32108;SDS011;18624;50.042;8.436;2022-11-21T09:22:14;2.40;;;1.88;;
32108;SDS011;18624;50.042;8.436;2022-11-21T09:24:40;3.58;;;1.98;;
32108;SDS011;18624;50.042;8.436;2022-11-21T09:27:07;3.35;;;1.98;;
32108;SDS011;18624;50.042;8.436;2022-11-21T09:29:33;5.32;;;1.85;;
32108;SDS011;18624;50.042;8.436;2022-11-21T09:32:00;9.13;;;2.58;;
32108;SDS011;18624;50.042;8.436;2022-11-21T09:34:26;5.22;;;3.03;;
32108;SDS011;18624;50.042;8.436;2022-11-21T09:36:53;2.95;;;1.75;;
32108;SDS011;18624;50.042;8.436;2022-11-21T09:39:20;4.78;;;1.23;;
32108;SDS011;18624;50.042;8.436;2022-11-21T09:44:30;3.03;;;1.38;;
32108;SDS011;18624;50.042;8.436;2022-11-21T09:50:31;2.15;;;1.95;;
32108;SDS011;18624;50.042;8.436;2022-11-21T09:52:39;6.22;;;2.80;;
32108;SDS011;18624;50.042;8.436;2022-11-21T09:55:19;2.97;;;1.40;;
32108;SDS011;18624;50.042;8.436;2022-11-21T09:58:03;2.88;;;1.23;;
32108;SDS011;18624;50.042;8.436;2022-11-21T10:00:34;5.35;;;1.20;;
32108;SDS011;18624;50.042;8.436;2022-11-21T10:03:00;3.70;;;2.53;;
32108;SDS011;18624;50.042;8.436;2022-11-21T10:05:44;3.90;;;1.40;;
32108;SDS011;18624;50.042;8.436;2022-11-21T10:08:23;3.20;;;1.35;;
32108;SDS011;18624;50.042;8.436;2022-11-21T10:13:58;4.90;;;2.33;;
32108;SDS011;18624;50.042;8.436;2022-11-21T10:16:40;7.68;;;1.52;;
32108;SDS011;18624;50.042;8.436;2022-11-21T10:19:20;4.00;;;1.33;;
32108;SDS011;18624;50.042;8.436;2022-11-21T10:25:18;1.95;;;1.15;;
32108;SDS011;18624;50.042;8.436;2022-11-21T10:28:09;3.85;;;1.73;;
32108;SDS011;18624;50.042;8.436;2022-11-21T10:30:44;3.42;;;1.27;;
32108;SDS011;18624;50.042;8.436;2022-11-21T10:33:18;3.83;;;1.70;;
32108;SDS011;18624;50.042;8.436;2022-11-21T10:36:20;6.18;;;1.38;;
32108;SDS011;18624;50.042;8.436;2022-11-21T10:38:48;3.60;;;1.20;;
32108;SDS011;18624;50.042;8.436;2022-11-21T10:41:23;2.42;;;1.05;;
32108;SDS011;18624;50.042;8.436;2022-11-21T10:44:16;8.50;;;2.10;;
32108;SDS011;18624;50.042;8.436;2022-11-21T10:47:14;4.07;;;1.35;;
32108;SDS011;18624;50.042;8.436;2022-11-21T10:52:35;3.92;;;1.50;;
32108;SDS011;18624;50.042;8.436;2022-11-21T10:55:09;3.38;;;1.40;;
32108;SDS011;18624;50.042;8.436;2022-11-21T10:57:46;3.10;;;0.90;;
32108;SDS011;18624;50.042;8.436;2022-11-21T11:00:16;2.50;;;1.00;;
32108;SDS011;18624;50.042;8.436;2022-11-21T11:13:32;3.70;;;1.05;;
32108;SDS011;18624;50.042;8.436;2022-11-21T11:16:19;3.22;;;1.33;;
32108;SDS011;18624;50.042;8.436;2022-11-21T11:21:28;1.38;;;0.75;;
32108;SDS011;18624;50.042;8.436;2022-11-21T11:24:05;2.97;;;0.75;;
32108;SDS011;18624;50.042;8.436;2022-11-21T11:29:14;5.20;;;0.85;;
32108;SDS011;18624;50.042;8.436;2022-11-21T11:31:43;3.75;;;1.38;;
32108;SDS011;18624;50.042;8.436;2022-11-21T11:34:12;1.80;;;1.13;;
32108;SDS011;18624;50.042;8.436;2022-11-21T11:36:59;2.47;;;0.80;;
32108;SDS011;18624;50.042;8.436;2022-11-21T11:39:44;6.03;;;0.90;;
32108;SDS011;18624;50.042;8.436;2022-11-21T11:47:57;3.05;;;0.85;;
32108;SDS011;18624;50.042;8.436;2022-11-21T11:50:36;1.63;;;1.00;;
32108;SDS011;18624;50.042;8.436;2022-11-21T11:53:16;2.42;;;1.02;;
32108;SDS011;18624;50.042;8.436;2022-11-21T11:55:50;3.15;;;1.10;;
32108;SDS011;18624;50.042;8.436;2022-11-21T12:01:14;2.40;;;0.98;;
32108;SDS011;18624;50.042;8.436;2022-11-21T12:03:48;1.35;;;0.93;;
32108;SDS011;18624;50.042;8.436;2022-11-21T12:06:24;2.67;;;0.85;;
32108;SDS011;18624;50.042;8.436;2022-11-21T12:09:15;3.50;;;1.33;;
32108;SDS011;18624;50.042;8.436;2022-11-21T12:12:04;2.45;;;0.95;;
32108;SDS011;18624;50.042;8.436;2022-11-21T12:15:01;4.18;;;1.80;;
32108;SDS011;18624;50.042;8.436;2022-11-21T12:18:14;2.03;;;1.00;;
32108;SDS011;18624;50.042;8.436;2022-11-21T12:26:25;2.35;;;0.90;;
32108;SDS011;18624;50.042;8.436;2022-11-21T12:29:06;5.30;;;0.95;;
32108;SDS011;18624;50.042;8.436;2022-11-21T12:42:38;3.30;;;1.20;;
32108;SDS011;18624;50.042;8.436;2022-11-21T12:45:28;2.13;;;0.75;;
32108;SDS011;18624;50.042;8.436;2022-11-21T12:48:12;2.45;;;0.98;;
32108;SDS011;18624;50.042;8.436;2022-11-21T12:57:09;3.15;;;1.30;;
32108;SDS011;18624;50.042;8.436;2022-11-21T12:59:43;1.73;;;0.77;;
32108;SDS011;18624;50.042;8.436;2022-11-21T13:05:34;3.13;;;0.98;;
32108;SDS011;18624;50.042;8.436;2022-11-21T13:10:37;1.50;;;0.60;;
32108;SDS011;18624;50.042;8.436;2022-11-21T13:15:56;3.13;;;1.10;;
32108;SDS011;18624;50.042;8.436;2022-11-21T13:18:29;5.50;;;1.52;;
32108;SDS011;18624;50.042;8.436;2022-11-21T13:21:01;2.47;;;0.90;;
32108;SDS011;18624;50.042;8.436;2022-11-21T13:23:38;5.05;;;1.27;;
32108;SDS011;18624;50.042;8.436;2022-11-21T13:26:42;7.00;;;1.38;;
32108;SDS011;18624;50.042;8.436;2022-11-21T13:29:14;4.40;;;0.75;;
32108;SDS011;18624;50.042;8.436;2022-11-21T13:31:41;6.45;;;1.33;;
32108;SDS011;18624;50.042;8.436;2022-11-21T13:36:56;4.85;;;0.98;;
32108;SDS011;18624;50.042;8.436;2022-11-21T13:39:25;5.20;;;1.60;;
32108;SDS011;18624;50.042;8.436;2022-11-21T13:41:58;2.38;;;0.80;;
32108;SDS011;18624;50.042;8.436;2022-11-21T13:44:46;3.83;;;0.80;;
32108;SDS011;18624;50.042;8.436;2022-11-21T13:49:54;2.13;;;1.33;;
32108;SDS011;18624;50.042;8.436;2022-11-21T13:52:48;4.05;;;2.20;;
32108;SDS011;18624;50.042;8.436;2022-11-21T13:55:39;1.95;;;1.02;;
32108;SDS011;18624;50.042;8.436;2022-11-21T14:04:24;6.32;;;2.75;;
32108;SDS011;18624;50.042;8.436;2022-11-21T14:07:15;4.38;;;1.60;;
32108;SDS011;18624;50.042;8.436;2022-11-21T14:09:51;5.55;;;2.80;;
32108;SDS011;18624;50.042;8.436;2022-11-21T14:12:29;5.63;;;1.40;;
32108;SDS011;18624;50.042;8.436;2022-11-21T14:15:09;5.68;;;1.40;;
32108;SDS011;18624;50.042;8.436;2022-11-21T14:17:57;5.40;;;1.60;;
32108;SDS011;18624;50.042;8.436;2022-11-21T14:20:26;7.32;;;2.00;;
32108;SDS011;18624;50.042;8.436;2022-11-21T14:25:45;3.30;;;1.55;;
32108;SDS011;18624;50.042;8.436;2022-11-21T14:28:15;5.05;;;1.40;;
32108;SDS011;18624;50.042;8.436;2022-11-21T14:30:50;8.05;;;1.80;;
32108;SDS011;18624;50.042;8.436;2022-11-21T14:36:15;6.72;;;1.67;;
32108;SDS011;18624;50.042;8.436;2022-11-21T14:38:44;2.85;;;1.08;;
32108;SDS011;18624;50.042;8.436;2022-11-21T14:41:33;2.63;;;1.35;;
32108;SDS011;18624;50.042;8.436;2022-11-21T14:44:02;4.50;;;1.65;;
32108;SDS011;18624;50.042;8.436;2022-11-21T14:46:37;3.17;;;1.67;;
32108;SDS011;18624;50.042;8.436;2022-11-21T14:51:37;3.25;;;1.45;;
32108;SDS011;18624;50.042;8.436;2022-11-21T14:54:09;2.55;;;1.25;;
32108;SDS011;18624;50.042;8.436;2022-11-21T14:56:41;3.92;;;1.38;;
32108;SDS011;18624;50.042;8.436;2022-11-21T14:59:19;4.15;;;1.30;;
32108;SDS011;18624;50.042;8.436;2022-11-21T15:01:58;4.68;;;1.98;;
32108;SDS011;18624;50.042;8.436;2022-11-21T15:04:30;2.60;;;1.77;;
32108;SDS011;18624;50.042;8.436;2022-11-21T15:06:58;3.15;;;1.77;;
32108;SDS011;18624;50.042;8.436;2022-11-21T15:09:25;2.75;;;1.52;;
32108;SDS011;18624;50.042;8.436;2022-11-21T15:12:12;2.58;;;1.90;;
32108;SDS011;18624;50.042;8.436;2022-11-21T15:14:46;5.22;;;2.40;;
32108;SDS011;18624;50.042;8.436;2022-11-21T15:17:20;4.32;;;2.00;;
32108;SDS011;18624;50.042;8.436;2022-11-21T15:20:02;3.28;;;2.38;;
32108;SDS011;18624;50.042;8.436;2022-11-21T15:22:37;3.95;;;2.22;;
32108;SDS011;18624;50.042;8.436;2022-11-21T15:27:40;3.35;;;2.00;;
32108;SDS011;18624;50.042;8.436;2022-11-21T15:38:26;4.47;;;1.90;;
32108;SDS011;18624;50.042;8.436;2022-11-21T15:46:08;7.35;;;4.00;;
32108;SDS011;18624;50.042;8.436;2022-11-21T15:48:49;7.60;;;3.17;;
32108;SDS011;18624;50.042;8.436;2022-11-21T15:51:22;7.60;;;2.58;;
32108;SDS011;18624;50.042;8.436;2022-11-21T15:54:11;4.35;;;2.30;;
32108;SDS011;18624;50.042;8.436;2022-11-21T15:56:43;3.95;;;2.53;;
32108;SDS011;18624;50.042;8.436;2022-11-21T15:59:09;5.85;;;3.20;;
32108;SDS011;18624;50.042;8.436;2022-11-21T16:01:36;5.18;;;1.88;;
32108;SDS011;18624;50.042;8.436;2022-11-21T16:04:04;3.47;;;1.40;;
32108;SDS011;18624;50.042;8.436;2022-11-21T16:06:31;2.28;;;1.60;;
32108;SDS011;18624;50.042;8.436;2022-11-21T16:08:59;5.03;;;2.28;;
32108;SDS011;18624;50.042;8.436;2022-11-21T16:13:55;5.82;;;3.30;;
32108;SDS011;18624;50.042;8.436;2022-11-21T16:16:26;7.40;;;2.33;;
32108;SDS011;18624;50.042;8.436;2022-11-21T16:18:55;6.50;;;2.95;;
32108;SDS011;18624;50.042;8.436;2022-11-21T16:21:22;5.78;;;2.55;;
32108;SDS011;18624;50.042;8.436;2022-11-21T16:23:49;7.75;;;3.10;;
32108;SDS011;18624;50.042;8.436;2022-11-21T16:26:15;8.30;;;3.40;;
32108;SDS011;18624;50.042;8.436;2022-11-21T16:28:42;5.63;;;3.42;;
32108;SDS011;18624;50.042;8.436;2022-11-21T16:31:18;6.97;;;3.88;;
32108;SDS011;18624;50.042;8.436;2022-11-21T16:33:46;5.63;;;3.10;;
32108;SDS011;18624;50.042;8.436;2022-11-21T16:36:12;11.65;;;4.72;;
32108;SDS011;18624;50.042;8.436;2022-11-21T16:38:43;10.05;;;4.43;;
32108;SDS011;18624;50.042;8.436;2022-11-21T16:41:11;7.75;;;4.43;;
32108;SDS011;18624;50.042;8.436;2022-11-21T16:43:44;6.43;;;3.63;;
32108;SDS011;18624;50.042;8.436;2022-11-21T16:46:12;12.82;;;4.63;;
32108;SDS011;18624;50.042;8.436;2022-11-21T16:48:40;18.00;;;11.57;;
32108;SDS011;18624;50.042;8.436;2022-11-21T16:51:16;22.63;;;14.90;;
32108;SDS011;18624;50.042;8.436;2022-11-21T16:53:45;13.60;;;7.85;;
32108;SDS011;18624;50.042;8.436;2022-11-21T16:56:13;8.80;;;5.70;;
32108;SDS011;18624;50.042;8.436;2022-11-21T16:58:41;7.43;;;4.45;;
32108;SDS011;18624;50.042;8.436;2022-11-21T17:01:15;5.13;;;3.45;;
32108;SDS011;18624;50.042;8.436;2022-11-21T17:03:44;6.28;;;4.05;;
32108;SDS011;18624;50.042;8.436;2022-11-21T17:06:13;7.00;;;3.88;;
32108;SDS011;18624;50.042;8.436;2022-11-21T17:08:43;11.18;;;6.28;;
32108;SDS011;18624;50.042;8.436;2022-11-21T17:11:11;10.93;;;5.75;;